sensor_id;sensor_type;location;lat;lon;timestamp;P1;durP1;ratioP1;P2;durP2;ratioP2
16242;SDS011;11719;51.052;6.982;2022-11-15T00:00:53;2.20;;;0.90;;
16242;SDS011;11719;51.052;6.982;2022-11-15T00:03:24;1.87;;;0.90;;
16242;SDS011;11719;51.052;6.982;2022-11-15T00:05:51;1.50;;;0.60;;
16242;SDS011;11719;51.052;6.982;2022-11-15T00:08:17;1.20;;;0.80;;
16242;SDS011;11719;51.052;6.982;2022-11-15T00:10:53;1.00;;;0.70;;
16242;SDS011;11719;51.052;6.982;2022-11-15T00:13:22;2.73;;;0.87;;
16242;SDS011;11719;51.052;6.982;2022-11-15T00:15:48;0.93;;;0.83;;
16242;SDS011;11719;51.052;6.982;2022-11-15T00:18:14;2.17;;;1.10;;
16242;SDS011;11719;51.052;6.982;2022-11-15T00:20:42;1.17;;;0.80;;
16242;SDS011;11719;51.052;6.982;2022-11-15T00:23:08;0.67;;;0.60;;
16242;SDS011;11719;51.052;6.982;2022-11-15T00:25:34;1.33;;;0.60;;
16242;SDS011;11719;51.052;6.982;2022-11-15T00:28:00;1.73;;;0.97;;
16242;SDS011;11719;51.052;6.982;2022-11-15T00:30:26;2.50;;;0.90;;
16242;SDS011;11719;51.052;6.982;2022-11-15T00:32:53;0.80;;;0.60;;
16242;SDS011;11719;51.052;6.982;2022-11-15T00:35:20;1.20;;;0.50;;
16242;SDS011;11719;51.052;6.982;2022-11-15T00:37:46;1.03;;;0.73;;
16242;SDS011;11719;51.052;6.982;2022-11-15T00:40:12;1.33;;;0.87;;
16242;SDS011;11719;51.052;6.982;2022-11-15T00:42:39;0.87;;;0.70;;
16242;SDS011;11719;51.052;6.982;2022-11-15T00:45:06;1.27;;;0.60;;
16242;SDS011;11719;51.052;6.982;2022-11-15T00:47:32;1.33;;;0.60;;
16242;SDS011;11719;51.052;6.982;2022-11-15T00:49:58;1.07;;;0.50;;
16242;SDS011;11719;51.052;6.982;2022-11-15T00:52:24;0.60;;;0.50;;
16242;SDS011;11719;51.052;6.982;2022-11-15T00:54:50;1.03;;;0.70;;
16242;SDS011;11719;51.052;6.982;2022-11-15T00:57:16;0.87;;;0.73;;
16242;SDS011;11719;51.052;6.982;2022-11-15T00:59:41;2.17;;;1.07;;
16242;SDS011;11719;51.052;6.982;2022-11-15T01:02:07;1.53;;;0.80;;
16242;SDS011;11719;51.052;6.982;2022-11-15T01:04:33;0.97;;;0.60;;
16242;SDS011;11719;51.052;6.982;2022-11-15T01:06:58;1.40;;;0.77;;
16242;SDS011;11719;51.052;6.982;2022-11-15T01:09:24;0.80;;;0.60;;
16242;SDS011;11719;51.052;6.982;2022-11-15T01:11:50;0.80;;;0.77;;
16242;SDS011;11719;51.052;6.982;2022-11-15T01:14:16;1.17;;;0.80;;
16242;SDS011;11719;51.052;6.982;2022-11-15T01:16:42;1.60;;;0.73;;
16242;SDS011;11719;51.052;6.982;2022-11-15T01:19:08;3.73;;;0.70;;
16242;SDS011;11719;51.052;6.982;2022-11-15T01:21:34;0.67;;;0.60;;
16242;SDS011;11719;51.052;6.982;2022-11-15T01:24:00;1.07;;;0.70;;
16242;SDS011;11719;51.052;6.982;2022-11-15T01:26:26;0.80;;;0.57;;
16242;SDS011;11719;51.052;6.982;2022-11-15T01:28:52;0.50;;;0.43;;
16242;SDS011;11719;51.052;6.982;2022-11-15T01:31:18;1.43;;;0.60;;
16242;SDS011;11719;51.052;6.982;2022-11-15T01:33:46;0.60;;;0.60;;
16242;SDS011;11719;51.052;6.982;2022-11-15T01:39:59;0.50;;;0.50;;
16242;SDS011;11719;51.052;6.982;2022-11-15T01:42:25;1.07;;;0.70;;
16242;SDS011;11719;51.052;6.982;2022-11-15T01:44:51;0.93;;;0.53;;
16242;SDS011;11719;51.052;6.982;2022-11-15T01:47:30;0.60;;;0.60;;
16242;SDS011;11719;51.052;6.982;2022-11-15T01:50:02;1.33;;;0.93;;
16242;SDS011;11719;51.052;6.982;2022-11-15T01:52:33;1.80;;;1.00;;
16242;SDS011;11719;51.052;6.982;2022-11-15T01:57:47;2.10;;;1.03;;
16242;SDS011;11719;51.052;6.982;2022-11-15T02:00:18;1.50;;;0.90;;
16242;SDS011;11719;51.052;6.982;2022-11-15T02:02:44;1.17;;;0.63;;
16242;SDS011;11719;51.052;6.982;2022-11-15T02:05:10;1.93;;;0.97;;
16242;SDS011;11719;51.052;6.982;2022-11-15T02:07:36;0.70;;;0.63;;
16242;SDS011;11719;51.052;6.982;2022-11-15T02:10:04;0.97;;;0.60;;
16242;SDS011;11719;51.052;6.982;2022-11-15T02:12:38;1.37;;;0.80;;
16242;SDS011;11719;51.052;6.982;2022-11-15T02:15:05;1.20;;;0.50;;
16242;SDS011;11719;51.052;6.982;2022-11-15T02:29:33;1.77;;;0.77;;
16242;SDS011;11719;51.052;6.982;2022-11-15T02:37:51;0.87;;;0.70;;
16242;SDS011;11719;51.052;6.982;2022-11-15T02:40:27;1.97;;;0.87;;
16242;SDS011;11719;51.052;6.982;2022-11-15T02:43:09;1.43;;;0.90;;
16242;SDS011;11719;51.052;6.982;2022-11-15T02:46:15;1.03;;;0.90;;
16242;SDS011;11719;51.052;6.982;2022-11-15T02:48:43;0.80;;;0.80;;
16242;SDS011;11719;51.052;6.982;2022-11-15T02:51:10;0.93;;;0.80;;
16242;SDS011;11719;51.052;6.982;2022-11-15T02:53:38;4.60;;;1.10;;
16242;SDS011;11719;51.052;6.982;2022-11-15T02:56:04;1.17;;;0.60;;
16242;SDS011;11719;51.052;6.982;2022-11-15T02:58:47;1.13;;;0.80;;
16242;SDS011;11719;51.052;6.982;2022-11-15T03:04:09;2.30;;;0.77;;
16242;SDS011;11719;51.052;6.982;2022-11-15T03:10:02;1.00;;;0.83;;
16242;SDS011;11719;51.052;6.982;2022-11-15T03:15:53;0.57;;;0.40;;
16242;SDS011;11719;51.052;6.982;2022-11-15T03:18:32;0.70;;;0.50;;
16242;SDS011;11719;51.052;6.982;2022-11-15T03:21:03;1.27;;;0.80;;
16242;SDS011;11719;51.052;6.982;2022-11-15T03:23:33;1.07;;;0.60;;
16242;SDS011;11719;51.052;6.982;2022-11-15T03:26:01;1.27;;;0.70;;
16242;SDS011;11719;51.052;6.982;2022-11-15T03:28:37;1.50;;;0.97;;
16242;SDS011;11719;51.052;6.982;2022-11-15T03:31:17;0.57;;;0.57;;
16242;SDS011;11719;51.052;6.982;2022-11-15T03:34:05;1.10;;;0.83;;
16242;SDS011;11719;51.052;6.982;2022-11-15T03:36:35;1.63;;;0.60;;
16242;SDS011;11719;51.052;6.982;2022-11-15T03:39:05;0.90;;;0.57;;
16242;SDS011;11719;51.052;6.982;2022-11-15T03:41:43;0.80;;;0.60;;
16242;SDS011;11719;51.052;6.982;2022-11-15T03:44:42;1.00;;;0.90;;
16242;SDS011;11719;51.052;6.982;2022-11-15T03:47:38;1.17;;;0.47;;
16242;SDS011;11719;51.052;6.982;2022-11-15T03:50:24;1.63;;;0.63;;
16242;SDS011;11719;51.052;6.982;2022-11-15T03:52:51;0.73;;;0.50;;
16242;SDS011;11719;51.052;6.982;2022-11-15T03:55:20;0.83;;;0.67;;
16242;SDS011;11719;51.052;6.982;2022-11-15T03:57:47;1.40;;;0.63;;
16242;SDS011;11719;51.052;6.982;2022-11-15T04:00:16;1.43;;;0.70;;
16242;SDS011;11719;51.052;6.982;2022-11-15T04:02:42;4.70;;;0.90;;
16242;SDS011;11719;51.052;6.982;2022-11-15T04:05:08;0.80;;;0.70;;
16242;SDS011;11719;51.052;6.982;2022-11-15T04:07:34;0.60;;;0.53;;
16242;SDS011;11719;51.052;6.982;2022-11-15T04:10:00;1.10;;;0.70;;
16242;SDS011;11719;51.052;6.982;2022-11-15T04:12:33;1.63;;;0.97;;
16242;SDS011;11719;51.052;6.982;2022-11-15T04:15:12;1.10;;;0.60;;
16242;SDS011;11719;51.052;6.982;2022-11-15T04:17:45;1.03;;;0.60;;
16242;SDS011;11719;51.052;6.982;2022-11-15T04:20:14;0.87;;;0.60;;
16242;SDS011;11719;51.052;6.982;2022-11-15T04:23:03;0.67;;;0.60;;
16242;SDS011;11719;51.052;6.982;2022-11-15T04:25:51;2.57;;;0.90;;
16242;SDS011;11719;51.052;6.982;2022-11-15T04:28:19;0.60;;;0.40;;
16242;SDS011;11719;51.052;6.982;2022-11-15T04:30:45;0.90;;;0.70;;
16242;SDS011;11719;51.052;6.982;2022-11-15T04:33:11;0.93;;;0.87;;
16242;SDS011;11719;51.052;6.982;2022-11-15T04:35:37;0.70;;;0.60;;
16242;SDS011;11719;51.052;6.982;2022-11-15T04:38:03;4.60;;;0.93;;
16242;SDS011;11719;51.052;6.982;2022-11-15T04:40:31;0.97;;;0.67;;
16242;SDS011;11719;51.052;6.982;2022-11-15T04:42:57;1.23;;;0.63;;
16242;SDS011;11719;51.052;6.982;2022-11-15T04:45:23;3.13;;;1.17;;
16242;SDS011;11719;51.052;6.982;2022-11-15T04:47:49;1.73;;;1.03;;
16242;SDS011;11719;51.052;6.982;2022-11-15T04:50:15;1.23;;;0.83;;
16242;SDS011;11719;51.052;6.982;2022-11-15T04:52:41;1.80;;;0.83;;
16242;SDS011;11719;51.052;6.982;2022-11-15T04:55:11;0.87;;;0.53;;
16242;SDS011;11719;51.052;6.982;2022-11-15T04:57:38;1.60;;;1.03;;
16242;SDS011;11719;51.052;6.982;2022-11-15T05:00:04;0.73;;;0.50;;
16242;SDS011;11719;51.052;6.982;2022-11-15T05:02:36;1.20;;;0.70;;
16242;SDS011;11719;51.052;6.982;2022-11-15T05:05:20;3.57;;;1.23;;
16242;SDS011;11719;51.052;6.982;2022-11-15T05:07:47;0.63;;;0.60;;
16242;SDS011;11719;51.052;6.982;2022-11-15T05:10:12;1.73;;;0.70;;
16242;SDS011;11719;51.052;6.982;2022-11-15T05:12:38;0.97;;;0.80;;
16242;SDS011;11719;51.052;6.982;2022-11-15T05:15:04;1.10;;;0.70;;
16242;SDS011;11719;51.052;6.982;2022-11-15T05:17:30;1.77;;;0.80;;
16242;SDS011;11719;51.052;6.982;2022-11-15T05:19:56;1.03;;;0.57;;
16242;SDS011;11719;51.052;6.982;2022-11-15T05:22:22;1.13;;;0.70;;
16242;SDS011;11719;51.052;6.982;2022-11-15T05:24:48;0.87;;;0.50;;
16242;SDS011;11719;51.052;6.982;2022-11-15T05:27:14;1.50;;;0.90;;
16242;SDS011;11719;51.052;6.982;2022-11-15T05:29:40;0.83;;;0.60;;
16242;SDS011;11719;51.052;6.982;2022-11-15T05:32:06;1.13;;;0.70;;
16242;SDS011;11719;51.052;6.982;2022-11-15T05:34:33;0.87;;;0.50;;
16242;SDS011;11719;51.052;6.982;2022-11-15T05:37:00;1.07;;;0.70;;
16242;SDS011;11719;51.052;6.982;2022-11-15T05:39:26;2.37;;;0.73;;
16242;SDS011;11719;51.052;6.982;2022-11-15T05:41:53;1.00;;;0.57;;
16242;SDS011;11719;51.052;6.982;2022-11-15T05:44:30;1.03;;;0.90;;
16242;SDS011;11719;51.052;6.982;2022-11-15T05:46:56;1.40;;;0.50;;
16242;SDS011;11719;51.052;6.982;2022-11-15T05:49:24;0.87;;;0.50;;
16242;SDS011;11719;51.052;6.982;2022-11-15T05:51:55;0.53;;;0.50;;
16242;SDS011;11719;51.052;6.982;2022-11-15T05:54:23;0.87;;;0.47;;
16242;SDS011;11719;51.052;6.982;2022-11-15T05:56:50;0.93;;;0.60;;
16242;SDS011;11719;51.052;6.982;2022-11-15T05:59:16;0.80;;;0.67;;
16242;SDS011;11719;51.052;6.982;2022-11-15T06:01:42;1.20;;;0.53;;
16242;SDS011;11719;51.052;6.982;2022-11-15T06:04:08;1.10;;;0.60;;
16242;SDS011;11719;51.052;6.982;2022-11-15T06:06:33;1.20;;;0.60;;
16242;SDS011;11719;51.052;6.982;2022-11-15T06:08:59;1.30;;;0.50;;
16242;SDS011;11719;51.052;6.982;2022-11-15T06:11:25;1.07;;;0.90;;
16242;SDS011;11719;51.052;6.982;2022-11-15T06:13:50;0.77;;;0.60;;
16242;SDS011;11719;51.052;6.982;2022-11-15T06:16:16;0.80;;;0.77;;
16242;SDS011;11719;51.052;6.982;2022-11-15T06:18:42;1.03;;;0.50;;
16242;SDS011;11719;51.052;6.982;2022-11-15T06:21:08;2.43;;;0.83;;
16242;SDS011;11719;51.052;6.982;2022-11-15T06:23:34;0.50;;;0.50;;
16242;SDS011;11719;51.052;6.982;2022-11-15T06:26:00;0.67;;;0.40;;
16242;SDS011;11719;51.052;6.982;2022-11-15T06:28:28;1.10;;;0.50;;
16242;SDS011;11719;51.052;6.982;2022-11-15T06:30:56;0.70;;;0.60;;
16242;SDS011;11719;51.052;6.982;2022-11-15T06:33:27;0.57;;;0.53;;
16242;SDS011;11719;51.052;6.982;2022-11-15T06:35:53;2.23;;;0.60;;
16242;SDS011;11719;51.052;6.982;2022-11-15T06:38:19;1.83;;;0.67;;
16242;SDS011;11719;51.052;6.982;2022-11-15T06:40:45;0.87;;;0.43;;
16242;SDS011;11719;51.052;6.982;2022-11-15T06:43:10;0.73;;;0.57;;
16242;SDS011;11719;51.052;6.982;2022-11-15T06:45:36;0.50;;;0.40;;
16242;SDS011;11719;51.052;6.982;2022-11-15T06:48:02;1.60;;;0.60;;
16242;SDS011;11719;51.052;6.982;2022-11-15T06:50:28;0.50;;;0.50;;
16242;SDS011;11719;51.052;6.982;2022-11-15T06:52:54;0.40;;;0.40;;
16242;SDS011;11719;51.052;6.982;2022-11-15T06:55:20;1.47;;;0.60;;
16242;SDS011;11719;51.052;6.982;2022-11-15T06:57:49;0.70;;;0.53;;
16242;SDS011;11719;51.052;6.982;2022-11-15T07:00:17;0.70;;;0.60;;
16242;SDS011;11719;51.052;6.982;2022-11-15T07:02:45;0.93;;;0.60;;
16242;SDS011;11719;51.052;6.982;2022-11-15T07:05:11;1.07;;;0.67;;
16242;SDS011;11719;51.052;6.982;2022-11-15T07:07:38;0.50;;;0.40;;
16242;SDS011;11719;51.052;6.982;2022-11-15T07:10:05;0.60;;;0.50;;
16242;SDS011;11719;51.052;6.982;2022-11-15T07:12:32;1.37;;;0.53;;
16242;SDS011;11719;51.052;6.982;2022-11-15T07:14:58;0.60;;;0.40;;
16242;SDS011;11719;51.052;6.982;2022-11-15T07:17:24;0.93;;;0.50;;
16242;SDS011;11719;51.052;6.982;2022-11-15T07:19:49;0.43;;;0.23;;
16242;SDS011;11719;51.052;6.982;2022-11-15T07:22:15;1.10;;;0.60;;
16242;SDS011;11719;51.052;6.982;2022-11-15T07:24:41;0.80;;;0.30;;
16242;SDS011;11719;51.052;6.982;2022-11-15T07:27:06;0.53;;;0.40;;
16242;SDS011;11719;51.052;6.982;2022-11-15T07:29:32;0.40;;;0.30;;
16242;SDS011;11719;51.052;6.982;2022-11-15T07:31:58;1.13;;;0.60;;
16242;SDS011;11719;51.052;6.982;2022-11-15T07:34:24;0.93;;;0.57;;
16242;SDS011;11719;51.052;6.982;2022-11-15T07:36:49;0.70;;;0.40;;
16242;SDS011;11719;51.052;6.982;2022-11-15T07:39:15;1.03;;;0.67;;
16242;SDS011;11719;51.052;6.982;2022-11-15T07:41:41;0.83;;;0.53;;
16242;SDS011;11719;51.052;6.982;2022-11-15T07:44:08;0.40;;;0.30;;
16242;SDS011;11719;51.052;6.982;2022-11-15T07:46:34;0.67;;;0.43;;
16242;SDS011;11719;51.052;6.982;2022-11-15T07:48:59;2.17;;;0.50;;
16242;SDS011;11719;51.052;6.982;2022-11-15T07:51:25;1.17;;;0.73;;
16242;SDS011;11719;51.052;6.982;2022-11-15T07:53:51;1.00;;;0.50;;
16242;SDS011;11719;51.052;6.982;2022-11-15T07:56:17;0.50;;;0.40;;
16242;SDS011;11719;51.052;6.982;2022-11-15T07:58:44;0.50;;;0.33;;
16242;SDS011;11719;51.052;6.982;2022-11-15T08:01:11;0.90;;;0.60;;
16242;SDS011;11719;51.052;6.982;2022-11-15T08:03:37;0.83;;;0.63;;
16242;SDS011;11719;51.052;6.982;2022-11-15T08:06:03;0.83;;;0.60;;
16242;SDS011;11719;51.052;6.982;2022-11-15T08:08:29;0.97;;;0.57;;
16242;SDS011;11719;51.052;6.982;2022-11-15T08:10:56;0.47;;;0.33;;
16242;SDS011;11719;51.052;6.982;2022-11-15T08:13:23;0.40;;;0.40;;
16242;SDS011;11719;51.052;6.982;2022-11-15T08:15:49;0.80;;;0.67;;
16242;SDS011;11719;51.052;6.982;2022-11-15T08:18:15;0.93;;;0.43;;
16242;SDS011;11719;51.052;6.982;2022-11-15T08:20:42;0.83;;;0.40;;
16242;SDS011;11719;51.052;6.982;2022-11-15T08:23:09;0.80;;;0.53;;
16242;SDS011;11719;51.052;6.982;2022-11-15T08:25:38;2.20;;;0.57;;
16242;SDS011;11719;51.052;6.982;2022-11-15T08:28:05;1.07;;;0.50;;
16242;SDS011;11719;51.052;6.982;2022-11-15T08:30:36;0.93;;;0.60;;
16242;SDS011;11719;51.052;6.982;2022-11-15T08:33:09;0.73;;;0.73;;
16242;SDS011;11719;51.052;6.982;2022-11-15T08:35:37;1.70;;;0.60;;
16242;SDS011;11719;51.052;6.982;2022-11-15T08:38:04;0.53;;;0.53;;
16242;SDS011;11719;51.052;6.982;2022-11-15T08:40:30;0.70;;;0.40;;
16242;SDS011;11719;51.052;6.982;2022-11-15T08:42:55;0.40;;;0.40;;
16242;SDS011;11719;51.052;6.982;2022-11-15T08:45:21;0.67;;;0.37;;
16242;SDS011;11719;51.052;6.982;2022-11-15T08:47:47;0.80;;;0.40;;
16242;SDS011;11719;51.052;6.982;2022-11-15T08:50:12;1.03;;;0.37;;
16242;SDS011;11719;51.052;6.982;2022-11-15T08:52:38;0.30;;;0.30;;
16242;SDS011;11719;51.052;6.982;2022-11-15T08:55:04;1.07;;;0.50;;
16242;SDS011;11719;51.052;6.982;2022-11-15T08:57:30;0.20;;;0.20;;
16242;SDS011;11719;51.052;6.982;2022-11-15T08:59:56;0.60;;;0.57;;
16242;SDS011;11719;51.052;6.982;2022-11-15T09:02:22;0.60;;;0.40;;
16242;SDS011;11719;51.052;6.982;2022-11-15T09:04:48;0.50;;;0.50;;
16242;SDS011;11719;51.052;6.982;2022-11-15T09:07:14;0.43;;;0.33;;
16242;SDS011;11719;51.052;6.982;2022-11-15T09:09:40;0.77;;;0.40;;
16242;SDS011;11719;51.052;6.982;2022-11-15T09:12:07;0.20;;;0.20;;
16242;SDS011;11719;51.052;6.982;2022-11-15T09:14:33;0.30;;;0.30;;
16242;SDS011;11719;51.052;6.982;2022-11-15T09:16:59;0.87;;;0.50;;
16242;SDS011;11719;51.052;6.982;2022-11-15T09:19:26;0.57;;;0.27;;
16242;SDS011;11719;51.052;6.982;2022-11-15T09:21:52;0.90;;;0.50;;
16242;SDS011;11719;51.052;6.982;2022-11-15T09:24:18;1.00;;;0.40;;
16242;SDS011;11719;51.052;6.982;2022-11-15T09:26:44;0.40;;;0.23;;
16242;SDS011;11719;51.052;6.982;2022-11-15T09:29:09;0.47;;;0.33;;
16242;SDS011;11719;51.052;6.982;2022-11-15T09:31:35;0.20;;;0.20;;
16242;SDS011;11719;51.052;6.982;2022-11-15T09:34:01;0.27;;;0.27;;
16242;SDS011;11719;51.052;6.982;2022-11-15T09:36:27;0.30;;;0.30;;
16242;SDS011;11719;51.052;6.982;2022-11-15T09:38:53;0.20;;;0.20;;
16242;SDS011;11719;51.052;6.982;2022-11-15T09:41:38;0.57;;;0.47;;
16242;SDS011;11719;51.052;6.982;2022-11-15T09:50:32;0.43;;;0.30;;
16242;SDS011;11719;51.052;6.982;2022-11-15T09:53:08;0.70;;;0.30;;
16242;SDS011;11719;51.052;6.982;2022-11-15T09:55:46;0.50;;;0.20;;
16242;SDS011;11719;51.052;6.982;2022-11-15T09:58:44;0.50;;;0.20;;
16242;SDS011;11719;51.052;6.982;2022-11-15T10:04:29;0.10;;;0.10;;
16242;SDS011;11719;51.052;6.982;2022-11-15T10:07:16;0.60;;;0.40;;
16242;SDS011;11719;51.052;6.982;2022-11-15T10:12:50;0.40;;;0.30;;
16242;SDS011;11719;51.052;6.982;2022-11-15T10:15:18;0.10;;;0.10;;
16242;SDS011;11719;51.052;6.982;2022-11-15T10:20:47;0.10;;;0.10;;
16242;SDS011;11719;51.052;6.982;2022-11-15T10:23:31;0.20;;;0.10;;
16242;SDS011;11719;51.052;6.982;2022-11-15T10:25:58;0.40;;;0.20;;
16242;SDS011;11719;51.052;6.982;2022-11-15T10:28:28;0.50;;;0.20;;
16242;SDS011;11719;51.052;6.982;2022-11-15T10:30:57;0.27;;;0.10;;
16242;SDS011;11719;51.052;6.982;2022-11-15T10:33:33;0.80;;;0.47;;
16242;SDS011;11719;51.052;6.982;2022-11-15T10:41:13;0.20;;;0.20;;
16242;SDS011;11719;51.052;6.982;2022-11-15T10:44:02;0.20;;;0.20;;
16242;SDS011;11719;51.052;6.982;2022-11-15T10:46:38;0.60;;;0.20;;
16242;SDS011;11719;51.052;6.982;2022-11-15T10:49:13;0.37;;;0.30;;
16242;SDS011;11719;51.052;6.982;2022-11-15T10:51:50;0.30;;;0.30;;
16242;SDS011;11719;51.052;6.982;2022-11-15T10:54:37;0.20;;;0.20;;
16242;SDS011;11719;51.052;6.982;2022-11-15T10:57:11;0.20;;;0.20;;
16242;SDS011;11719;51.052;6.982;2022-11-15T10:59:47;0.13;;;0.10;;
16242;SDS011;11719;51.052;6.982;2022-11-15T11:05:06;0.90;;;0.27;;
16242;SDS011;11719;51.052;6.982;2022-11-15T11:08:00;0.33;;;0.10;;
16242;SDS011;11719;51.052;6.982;2022-11-15T11:10:29;0.60;;;0.13;;
16242;SDS011;11719;51.052;6.982;2022-11-15T11:12:55;0.47;;;0.40;;
16242;SDS011;11719;51.052;6.982;2022-11-15T11:15:21;0.70;;;0.10;;
16242;SDS011;11719;51.052;6.982;2022-11-15T11:26:14;0.20;;;0.20;;
16242;SDS011;11719;51.052;6.982;2022-11-15T11:35:11;0.20;;;0.20;;
16242;SDS011;11719;51.052;6.982;2022-11-15T11:40:35;0.47;;;0.30;;
16242;SDS011;11719;51.052;6.982;2022-11-15T11:49:07;0.20;;;0.20;;
16242;SDS011;11719;51.052;6.982;2022-11-15T11:51:48;0.20;;;0.10;;
16242;SDS011;11719;51.052;6.982;2022-11-15T11:54:32;0.10;;;0.10;;
16242;SDS011;11719;51.052;6.982;2022-11-15T11:57:39;0.13;;;0.13;;
16242;SDS011;11719;51.052;6.982;2022-11-15T12:00:45;1.57;;;0.27;;
16242;SDS011;11719;51.052;6.982;2022-11-15T12:06:39;0.40;;;0.30;;
16242;SDS011;11719;51.052;6.982;2022-11-15T12:09:38;0.13;;;0.10;;
16242;SDS011;11719;51.052;6.982;2022-11-15T12:12:15;0.50;;;0.33;;
16242;SDS011;11719;51.052;6.982;2022-11-15T12:14:57;1.13;;;0.50;;
16242;SDS011;11719;51.052;6.982;2022-11-15T12:17:50;0.30;;;0.07;;
16242;SDS011;11719;51.052;6.982;2022-11-15T12:20:20;0.30;;;0.00;;
16242;SDS011;11719;51.052;6.982;2022-11-15T12:23:04;2.53;;;0.50;;
16242;SDS011;11719;51.052;6.982;2022-11-15T12:25:53;0.00;;;0.00;;
16242;SDS011;11719;51.052;6.982;2022-11-15T12:28:32;0.10;;;0.10;;
16242;SDS011;11719;51.052;6.982;2022-11-15T12:31:09;0.30;;;0.20;;
16242;SDS011;11719;51.052;6.982;2022-11-15T12:33:47;2.37;;;0.30;;
16242;SDS011;11719;51.052;6.982;2022-11-15T12:36:36;0.10;;;0.10;;
16242;SDS011;11719;51.052;6.982;2022-11-15T12:39:07;0.23;;;0.10;;
16242;SDS011;11719;51.052;6.982;2022-11-15T12:41:44;0.27;;;0.20;;
16242;SDS011;11719;51.052;6.982;2022-11-15T13:17:39;0.50;;;0.10;;
16242;SDS011;11719;51.052;6.982;2022-11-15T13:28:48;0.27;;;0.10;;
16242;SDS011;11719;51.052;6.982;2022-11-15T13:31:23;0.30;;;0.13;;
16242;SDS011;11719;51.052;6.982;2022-11-15T13:36:50;0.10;;;0.10;;
16242;SDS011;11719;51.052;6.982;2022-11-15T13:39:27;0.27;;;0.03;;
16242;SDS011;11719;51.052;6.982;2022-11-15T13:41:58;1.00;;;0.10;;
16242;SDS011;11719;51.052;6.982;2022-11-15T13:44:26;0.30;;;0.10;;
16242;SDS011;11719;51.052;6.982;2022-11-15T13:49:56;0.20;;;0.03;;
16242;SDS011;11719;51.052;6.982;2022-11-15T13:52:24;0.20;;;0.10;;
16242;SDS011;11719;51.052;6.982;2022-11-15T13:55:04;0.10;;;0.00;;
16242;SDS011;11719;51.052;6.982;2022-11-15T14:08:37;0.33;;;0.20;;
16242;SDS011;11719;51.052;6.982;2022-11-15T14:11:22;0.27;;;0.20;;
16242;SDS011;11719;51.052;6.982;2022-11-15T14:16:36;0.30;;;0.13;;
16242;SDS011;11719;51.052;6.982;2022-11-15T14:24:36;0.17;;;0.17;;
16242;SDS011;11719;51.052;6.982;2022-11-15T14:27:16;0.27;;;0.20;;
16242;SDS011;11719;51.052;6.982;2022-11-15T14:29:51;0.10;;;0.10;;
16242;SDS011;11719;51.052;6.982;2022-11-15T14:32:22;0.40;;;0.20;;
16242;SDS011;11719;51.052;6.982;2022-11-15T14:34:57;0.10;;;0.10;;
16242;SDS011;11719;51.052;6.982;2022-11-15T14:39:51;0.30;;;0.10;;
16242;SDS011;11719;51.052;6.982;2022-11-15T14:42:18;0.20;;;0.10;;
16242;SDS011;11719;51.052;6.982;2022-11-15T14:44:46;0.40;;;0.20;;
16242;SDS011;11719;51.052;6.982;2022-11-15T14:47:13;0.50;;;0.30;;
16242;SDS011;11719;51.052;6.982;2022-11-15T14:49:39;0.47;;;0.27;;
16242;SDS011;11719;51.052;6.982;2022-11-15T14:54:58;0.10;;;0.10;;
16242;SDS011;11719;51.052;6.982;2022-11-15T14:57:26;0.80;;;0.20;;
16242;SDS011;11719;51.052;6.982;2022-11-15T14:59:52;0.30;;;0.10;;
16242;SDS011;11719;51.052;6.982;2022-11-15T15:02:21;0.10;;;0.10;;
16242;SDS011;11719;51.052;6.982;2022-11-15T15:04:50;0.53;;;0.30;;
16242;SDS011;11719;51.052;6.982;2022-11-15T15:07:16;0.10;;;0.10;;
16242;SDS011;11719;51.052;6.982;2022-11-15T15:09:43;0.33;;;0.30;;
16242;SDS011;11719;51.052;6.982;2022-11-15T15:12:14;0.60;;;0.30;;
16242;SDS011;11719;51.052;6.982;2022-11-15T15:14:41;2.03;;;0.20;;
16242;SDS011;11719;51.052;6.982;2022-11-15T15:17:07;0.50;;;0.30;;
16242;SDS011;11719;51.052;6.982;2022-11-15T15:19:35;0.20;;;0.20;;
16242;SDS011;11719;51.052;6.982;2022-11-15T15:22:00;0.53;;;0.40;;
16242;SDS011;11719;51.052;6.982;2022-11-15T15:24:26;0.20;;;0.20;;
16242;SDS011;11719;51.052;6.982;2022-11-15T15:26:52;0.10;;;0.10;;
16242;SDS011;11719;51.052;6.982;2022-11-15T15:29:18;0.30;;;0.30;;
16242;SDS011;11719;51.052;6.982;2022-11-15T15:31:43;0.20;;;0.20;;
16242;SDS011;11719;51.052;6.982;2022-11-15T15:34:09;0.50;;;0.40;;
16242;SDS011;11719;51.052;6.982;2022-11-15T15:36:35;0.60;;;0.30;;
16242;SDS011;11719;51.052;6.982;2022-11-15T15:39:00;0.40;;;0.20;;
16242;SDS011;11719;51.052;6.982;2022-11-15T15:41:26;0.27;;;0.17;;
16242;SDS011;11719;51.052;6.982;2022-11-15T15:43:52;0.30;;;0.23;;
16242;SDS011;11719;51.052;6.982;2022-11-15T15:46:18;0.70;;;0.30;;
16242;SDS011;11719;51.052;6.982;2022-11-15T15:48:45;0.23;;;0.20;;
16242;SDS011;11719;51.052;6.982;2022-11-15T15:51:12;0.10;;;0.10;;
16242;SDS011;11719;51.052;6.982;2022-11-15T15:53:38;0.30;;;0.20;;
16242;SDS011;11719;51.052;6.982;2022-11-15T15:56:04;0.10;;;0.10;;
16242;SDS011;11719;51.052;6.982;2022-11-15T15:58:32;0.60;;;0.30;;
16242;SDS011;11719;51.052;6.982;2022-11-15T16:00:59;0.30;;;0.23;;
16242;SDS011;11719;51.052;6.982;2022-11-15T16:03:24;0.30;;;0.30;;
16242;SDS011;11719;51.052;6.982;2022-11-15T16:05:52;0.40;;;0.27;;
16242;SDS011;11719;51.052;6.982;2022-11-15T16:08:19;0.20;;;0.10;;
16242;SDS011;11719;51.052;6.982;2022-11-15T16:10:47;0.43;;;0.30;;
16242;SDS011;11719;51.052;6.982;2022-11-15T16:13:14;1.10;;;0.40;;
16242;SDS011;11719;51.052;6.982;2022-11-15T16:15:40;0.30;;;0.20;;
16242;SDS011;11719;51.052;6.982;2022-11-15T16:18:09;0.33;;;0.20;;
16242;SDS011;11719;51.052;6.982;2022-11-15T16:20:45;0.40;;;0.20;;
16242;SDS011;11719;51.052;6.982;2022-11-15T16:23:15;0.20;;;0.10;;
16242;SDS011;11719;51.052;6.982;2022-11-15T16:31:04;0.57;;;0.30;;
16242;SDS011;11719;51.052;6.982;2022-11-15T16:33:34;0.20;;;0.20;;
16242;SDS011;11719;51.052;6.982;2022-11-15T16:36:01;1.00;;;0.30;;
16242;SDS011;11719;51.052;6.982;2022-11-15T16:38:27;1.17;;;0.30;;
16242;SDS011;11719;51.052;6.982;2022-11-15T16:40:53;0.30;;;0.20;;
16242;SDS011;11719;51.052;6.982;2022-11-15T16:43:18;0.17;;;0.17;;
16242;SDS011;11719;51.052;6.982;2022-11-15T16:45:44;0.93;;;0.30;;
16242;SDS011;11719;51.052;6.982;2022-11-15T16:48:23;0.10;;;0.10;;
16242;SDS011;11719;51.052;6.982;2022-11-15T16:50:54;1.50;;;0.43;;
16242;SDS011;11719;51.052;6.982;2022-11-15T16:53:21;0.40;;;0.40;;
16242;SDS011;11719;51.052;6.982;2022-11-15T16:55:47;0.10;;;0.10;;
16242;SDS011;11719;51.052;6.982;2022-11-15T16:58:13;0.30;;;0.27;;
16242;SDS011;11719;51.052;6.982;2022-11-15T17:00:39;0.10;;;0.10;;
16242;SDS011;11719;51.052;6.982;2022-11-15T17:03:05;0.30;;;0.20;;
16242;SDS011;11719;51.052;6.982;2022-11-15T17:05:31;0.33;;;0.20;;
16242;SDS011;11719;51.052;6.982;2022-11-15T17:07:57;1.20;;;0.40;;
16242;SDS011;11719;51.052;6.982;2022-11-15T17:10:24;0.50;;;0.10;;
16242;SDS011;11719;51.052;6.982;2022-11-15T17:12:51;0.60;;;0.30;;
16242;SDS011;11719;51.052;6.982;2022-11-15T17:15:19;0.20;;;0.20;;
16242;SDS011;11719;51.052;6.982;2022-11-15T17:17:50;0.83;;;0.50;;
16242;SDS011;11719;51.052;6.982;2022-11-15T17:20:21;0.47;;;0.40;;
16242;SDS011;11719;51.052;6.982;2022-11-15T17:22:49;0.57;;;0.33;;
16242;SDS011;11719;51.052;6.982;2022-11-15T17:25:15;0.40;;;0.30;;
16242;SDS011;11719;51.052;6.982;2022-11-15T17:27:41;0.60;;;0.30;;
16242;SDS011;11719;51.052;6.982;2022-11-15T17:30:07;1.27;;;0.30;;
16242;SDS011;11719;51.052;6.982;2022-11-15T17:32:36;1.07;;;0.97;;
16242;SDS011;11719;51.052;6.982;2022-11-15T17:35:03;0.73;;;0.63;;
16242;SDS011;11719;51.052;6.982;2022-11-15T17:37:33;0.50;;;0.50;;
16242;SDS011;11719;51.052;6.982;2022-11-15T17:39:59;1.00;;;0.67;;
16242;SDS011;11719;51.052;6.982;2022-11-15T17:42:25;0.93;;;0.60;;
16242;SDS011;11719;51.052;6.982;2022-11-15T17:44:51;0.57;;;0.37;;